Time;durP1;ratioP1;P1;durP2;ratioP2;P2;SDS_P1;SDS_P2;PMS_P1;PMS_P2;Temp;Humidity;BMP_temperature;BMP_pressure;BME280_temperature;BME280_humidity;BME280_pressure;Samples;Min_cycle;Max_cycle;Signal;HPM_P1;HPM_P2
2021/12/06 00:01:29;;;;;;;;;;;;;;;-146.64;100.00;39988.66;5066596;28;20036;-76
2021/12/06 00:03:57;;;;;;;;;;;;;;;-146.64;100.00;39988.66;5058406;28;20384;-75
2021/12/06 00:06:23;;;;;;;;;;;;;;;-146.64;100.00;39964.09;5067685;28;19920;-75
2021/12/06 00:08:49;;;;;;;;;;;;;;;-146.64;100.00;39962.06;5066515;28;19909;-75
2021/12/06 00:11:14;;;;;;;;;;;;;;;-146.64;100.00;39980.47;5057063;28;20506;-75
2021/12/06 00:13:41;;;;;;;;;;;;;;;-146.64;100.00;39968.19;5049568;28;20299;-76
2021/12/06 00:16:09;;;;;;;;;;;;;;;-146.64;100.00;39978.44;5060996;28;19912;-75
2021/12/06 00:18:35;;;;;;;;;;;;;;;-146.64;100.00;39988.66;5077519;28;19912;-75
2021/12/06 00:21:00;;;;;;;;;;;;;;;-146.64;100.00;39960.00;5063354;28;20374;-75
2021/12/06 00:23:27;;;;;;;;;;;;;;;-146.64;100.00;39976.38;5067685;28;19916;-75
2021/12/06 00:25:52;;;;;;;;;;;;;;;-146.64;100.00;39988.66;5049982;28;20002;-75
2021/12/06 00:28:18;;;;;;;;;;;;;;;-146.64;100.00;39972.28;5052909;28;19917;-76
2021/12/06 00:30:43;;;;;;;;;;;;;;;-146.64;100.00;39976.38;5065991;28;20275;-75
2021/12/06 00:33:08;;;;;;;;;;;;;;;-146.64;100.00;39951.81;5055133;28;19916;-75
2021/12/06 00:35:34;;;;;;;;;;;;;;;-146.64;100.00;39955.91;5064976;28;19927;-75
2021/12/06 00:38:00;;;;;;;;;;;;;;;-146.64;100.00;39984.56;5066995;28;19957;-75
2021/12/06 00:40:36;;;;;;;;;;;;;;;-146.64;100.00;39984.56;5073270;28;20000;-75
2021/12/06 00:43:01;;;;;;;;;;;;;;;-146.64;100.00;39968.19;5074425;28;19977;-75
2021/12/06 00:45:27;;;;;;;;;;;;;;;-146.64;100.00;39964.09;5070023;28;20011;-75
2021/12/06 00:47:53;;;;;;;;;;;;;;;-146.64;100.00;39939.53;5064366;28;19945;-75
2021/12/06 00:50:18;;;;;;;;;;;;;;;-146.64;100.00;39957.97;5065435;28;19912;-75
2021/12/06 00:52:44;;;;;;;;;;;;;;;-146.64;100.00;39972.28;5062750;28;19912;-75
2021/12/06 00:55:09;;;;;;;;;;;;;;;-146.64;100.00;39960.00;5051676;28;19931;-75
2021/12/06 00:57:35;;;;;;;;;;;;;;;-146.64;100.00;39947.72;5072299;28;20053;-75
2021/12/06 01:00:00;;;;;;;;;;;;;;;-146.64;100.00;39943.63;5067027;28;20287;-75
2021/12/06 01:02:25;;;;;;;;;;;;;;;-146.64;100.00;39939.53;5054103;28;19955;-75
2021/12/06 01:04:51;;;;;;;;;;;;;;;-146.64;100.00;39962.06;5062082;28;20003;-75
2021/12/06 01:07:17;;;;;;;;;;;;;;;-146.64;100.00;39964.09;5077870;28;19947;-75
2021/12/06 01:09:42;;;;;;;;;;;;;;;-146.64;100.00;39951.81;5064815;28;19966;-75
2021/12/06 01:12:08;;;;;;;;;;;;;;;-146.64;100.00;39953.88;5060838;28;20295;-77
2021/12/06 01:14:33;;;;;;;;;;;;;;;-146.64;100.00;39939.53;5071327;28;19926;-75
2021/12/06 01:16:58;;;;;;;;;;;;;;;-146.64;100.00;39943.63;5046572;28;20368;-75
2021/12/06 01:19:28;;;;;;;;;;;;;;;-146.64;100.00;39951.81;5066481;28;20356;-75
2021/12/06 01:22:12;;;;;;;;;;;;;;;-146.64;100.00;39962.06;5069381;28;19920;-75
2021/12/06 01:24:44;;;;;;;;;;;;;;;-146.64;100.00;39943.63;5051426;28;19924;-75
2021/12/06 01:27:33;;;;;;;;;;;;;;;-146.64;100.00;39953.88;5050667;28;20321;-75
2021/12/06 01:40:12;;;;;;;;;;;;;;;-146.64;100.00;39988.66;5080188;28;19961;-76
2021/12/06 01:42:38;;;;;;;;;;;;;;;-146.64;100.00;39947.72;5070238;28;20375;-75
2021/12/06 01:45:03;;;;;;;;;;;;;;;-146.64;100.00;39964.09;5060165;28;19912;-76
2021/12/06 01:47:30;;;;;;;;;;;;;;;-146.64;100.00;39982.53;5061894;28;19912;-75
2021/12/06 01:49:56;;;;;;;;;;;;;;;-146.64;100.00;39955.91;5066053;28;20280;-75
2021/12/06 01:52:23;;;;;;;;;;;;;;;-146.64;100.00;39951.81;5077671;28;19982;-75
2021/12/06 01:54:49;;;;;;;;;;;;;;;-146.64;100.00;39937.50;5074629;28;19915;-75
2021/12/06 01:57:14;;;;;;;;;;;;;;;-146.64;100.00;39935.44;5045227;28;19912;-76
2021/12/06 01:59:40;;;;;;;;;;;;;;;-146.64;100.00;39902.69;5073101;28;20279;-75
2021/12/06 02:02:05;;;;;;;;;;;;;;;-146.64;100.00;39953.88;5049005;28;19943;-77
2021/12/06 02:04:32;;;;;;;;;;;;;;;-146.64;100.00;39955.91;5063579;28;19916;-76
2021/12/06 02:06:57;;;;;;;;;;;;;;;-146.64;100.00;39906.78;5081084;28;20019;-77
2021/12/06 02:09:26;;;;;;;;;;;;;;;-146.64;100.00;39955.91;5063197;28;19990;-79
2021/12/06 02:11:52;;;;;;;;;;;;;;;-146.64;100.00;39927.25;5072686;28;19931;-76
2021/12/06 02:14:35;;;;;;;;;;;;;;;-146.64;100.00;39937.50;5066079;28;19920;-76
2021/12/06 02:19:32;;;;;;;;;;;;;;;-146.64;100.00;39939.53;5088824;28;19963;-76
2021/12/06 02:21:57;;;;;;;;;;;;;;;-146.64;100.00;39943.63;5056784;28;19920;-76
2021/12/06 02:24:22;;;;;;;;;;;;;;;-146.64;100.00;39947.72;5066290;28;19913;-76
2021/12/06 02:26:48;;;;;;;;;;;;;;;-146.64;100.00;39917.03;5064144;28;19917;-76
2021/12/06 02:29:13;;;;;;;;;;;;;;;-146.64;100.00;39925.22;5060199;28;19963;-76
2021/12/06 02:31:38;;;;;;;;;;;;;;;-146.64;100.00;39939.53;5051384;28;20279;-77
2021/12/06 02:34:04;;;;;;;;;;;;;;;-146.64;100.00;39927.25;5038481;28;19916;-76
2021/12/06 02:36:31;;;;;;;;;;;;;;;-146.64;100.00;39972.28;5057195;28;19965;-77
2021/12/06 02:38:56;;;;;;;;;;;;;;;-146.64;100.00;39964.09;5079798;28;20209;-76
2021/12/06 02:41:22;;;;;;;;;;;;;;;-146.64;100.00;39939.53;5066545;28;19995;-76
2021/12/06 02:43:47;;;;;;;;;;;;;;;-146.64;100.00;39927.25;5052755;28;19924;-76
2021/12/06 02:46:13;;;;;;;;;;;;;;;-146.64;100.00;39953.88;5049131;28;19912;-75
2021/12/06 02:48:38;;;;;;;;;;;;;;;-146.64;100.00;39943.63;5082781;28;20381;-77
2021/12/06 02:51:05;;;;;;;;;;;;;;;-146.64;100.00;39935.44;5055983;28;19937;-76
2021/12/06 02:53:31;;;;;;;;;;;;;;;-146.64;100.00;39984.56;5067926;28;19912;-77
2021/12/06 02:55:59;;;;;;;;;;;;;;;-146.64;100.00;39962.06;5069641;28;20343;-77
2021/12/06 03:01:02;;;;;;;;;;;;;;;-146.64;100.00;39923.16;5051754;28;19917;-76
2021/12/06 03:03:27;;;;;;;;;;;;;;;-146.64;100.00;39947.72;5050157;28;19920;-76
2021/12/06 03:05:53;;;;;;;;;;;;;;;-146.64;100.00;39960.00;5057282;28;19913;-76
2021/12/06 03:08:39;;;;;;;;;;;;;;;-146.64;100.00;39947.72;5052492;28;19913;-75
2021/12/06 03:11:05;;;;;;;;;;;;;;;-146.64;100.00;39976.38;5063934;28;19919;-76
2021/12/06 03:13:30;;;;;;;;;;;;;;;-146.64;100.00;39960.00;5042477;28;19963;-76
2021/12/06 03:15:55;;;;;;;;;;;;;;;-146.64;100.00;39986.63;5060983;28;19992;-76
2021/12/06 03:18:21;;;;;;;;;;;;;;;-146.64;100.00;40043.94;5062643;28;19935;-76
2021/12/06 03:20:46;;;;;;;;;;;;;;;-146.64;100.00;39939.53;5070002;28;20358;-76
2021/12/06 03:23:12;;;;;;;;;;;;;;;-146.64;100.00;39947.72;5064624;28;19923;-76
2021/12/06 03:25:37;;;;;;;;;;;;;;;-146.64;100.00;39996.84;5071956;28;19924;-76
2021/12/06 03:28:03;;;;;;;;;;;;;;;-146.64;100.00;39968.19;5068810;28;20015;-76
2021/12/06 03:30:28;;;;;;;;;;;;;;;-146.64;100.00;39984.56;5069849;28;20283;-76
2021/12/06 03:32:53;;;;;;;;;;;;;;;-146.64;100.00;39996.84;5073733;28;19912;-76
2021/12/06 03:35:18;;;;;;;;;;;;;;;-146.64;100.00;39996.84;5054180;28;19955;-76
2021/12/06 03:37:44;;;;;;;;;;;;;;;-146.64;100.00;39980.47;5069998;28;19916;-76
2021/12/06 03:40:09;;;;;;;;;;;;;;;-146.64;100.00;39960.00;5057654;28;19912;-77
2021/12/06 03:42:35;;;;;;;;;;;;;;;-146.64;100.00;39982.53;5060604;28;19938;-76
2021/12/06 03:45:00;;;;;;;;;;;;;;;-146.64;100.00;39978.44;5071857;28;20286;-76
2021/12/06 03:47:27;;;;;;;;;;;;;;;-146.64;100.00;39974.34;5074521;28;20425;-76
2021/12/06 03:49:52;;;;;;;;;;;;;;;-146.64;100.00;39972.28;5058792;28;19918;-76
2021/12/06 03:52:18;;;;;;;;;;;;;;;-146.64;100.00;39992.75;5074804;28;20367;-77
2021/12/06 03:54:43;;;;;;;;;;;;;;;-146.64;100.00;39990.72;5076983;28;20002;-76
2021/12/06 03:57:08;;;;;;;;;;;;;;;-146.64;100.00;39968.19;5069388;28;19913;-76
2021/12/06 03:59:34;;;;;;;;;;;;;;;-146.64;100.00;40005.03;5073039;28;19970;-76
2021/12/06 04:01:59;;;;;;;;;;;;;;;-146.64;100.00;39972.28;5063850;28;19951;-76
2021/12/06 04:04:25;;;;;;;;;;;;;;;-146.64;100.00;39996.84;5060582;28;19920;-75
2021/12/06 04:06:50;;;;;;;;;;;;;;;-146.64;100.00;39972.28;5069754;28;19944;-76
2021/12/06 04:09:16;;;;;;;;;;;;;;;-146.64;100.00;39986.63;5052817;28;19932;-76
2021/12/06 04:11:41;;;;;;;;;;;;;;;-146.64;100.00;39992.75;5056970;28;20410;-76
2021/12/06 04:14:08;;;;;;;;;;;;;;;-146.64;100.00;39988.66;5053228;28;19920;-77
2021/12/06 04:16:33;;;;;;;;;;;;;;;-146.64;100.00;39986.63;5075057;28;19913;-75
2021/12/06 04:18:58;;;;;;;;;;;;;;;-146.64;100.00;39976.38;5042228;28;19988;-75
2021/12/06 04:21:24;;;;;;;;;;;;;;;-146.64;100.00;39992.75;5058152;28;19916;-76
2021/12/06 04:23:49;;;;;;;;;;;;;;;-146.64;100.00;39998.91;5056449;28;19924;-78
2021/12/06 04:26:15;;;;;;;;;;;;;;;-146.64;100.00;40021.41;5068309;28;19916;-76
2021/12/06 04:28:47;;;;;;;;;;;;;;;-146.64;100.00;40000.94;5054626;28;19913;-76
2021/12/06 04:31:13;;;;;;;;;;;;;;;-146.64;100.00;40033.69;5061298;28;20393;-76
2021/12/06 04:33:39;;;;;;;;;;;;;;;-146.64;100.00;39984.56;5059233;28;19913;-76
2021/12/06 04:36:04;;;;;;;;;;;;;;;-146.64;100.00;40009.13;5056739;28;19931;-76
2021/12/06 04:38:29;;;;;;;;;;;;;;;-146.64;100.00;40031.66;5055932;28;19920;-77
2021/12/06 04:40:54;;;;;;;;;;;;;;;-146.64;100.00;40029.59;5045417;28;19919;-76
2021/12/06 04:43:20;;;;;;;;;;;;;;;-146.64;100.00;40017.31;5077181;28;19917;-77
2021/12/06 04:45:45;;;;;;;;;;;;;;;-146.64;100.00;39996.84;5046568;28;19908;-76
2021/12/06 04:48:10;;;;;;;;;;;;;;;-146.64;100.00;39980.47;5060702;28;20473;-77
2021/12/06 04:50:36;;;;;;;;;;;;;;;-146.64;100.00;40017.31;5057834;28;20028;-76
2021/12/06 04:53:07;;;;;;;;;;;;;;;-146.64;100.00;40021.41;5068512;28;20312;-77
2021/12/06 04:55:32;;;;;;;;;;;;;;;-146.64;100.00;39984.56;5066206;28;19919;-76
2021/12/06 04:57:57;;;;;;;;;;;;;;;-146.64;100.00;40011.19;5077970;28;20243;-77
2021/12/06 05:00:35;;;;;;;;;;;;;;;-146.64;100.00;39996.84;5067934;28;20364;-77
2021/12/06 05:03:00;;;;;;;;;;;;;;;-146.64;100.00;39988.66;5070523;28;20085;-76
2021/12/06 05:05:41;;;;;;;;;;;;;;;-146.64;100.00;39984.56;5070556;28;19961;-76
2021/12/06 05:08:15;;;;;;;;;;;;;;;-146.64;100.00;39994.81;5038077;28;20003;-77
2021/12/06 05:10:40;;;;;;;;;;;;;;;-146.64;100.00;40005.03;5076980;28;19950;-77
2021/12/06 05:13:06;;;;;;;;;;;;;;;-146.64;100.00;39890.41;5050219;28;20344;-77
2021/12/06 05:15:31;;;;;;;;;;;;;;;-146.64;100.00;39996.84;5071379;28;20019;-76
2021/12/06 05:17:56;;;;;;;;;;;;;;;-146.64;100.00;39990.72;5053936;28;19931;-76
2021/12/06 05:20:22;;;;;;;;;;;;;;;-146.64;100.00;39998.91;5062741;28;20076;-76
2021/12/06 05:22:47;;;;;;;;;;;;;;;-146.64;100.00;40000.94;5062268;28;19920;-76
2021/12/06 05:25:14;;;;;;;;;;;;;;;-146.64;100.00;40021.41;5059148;28;20283;-76
2021/12/06 05:27:39;;;;;;;;;;;;;;;-146.64;100.00;40017.31;5057227;28;19916;-76
2021/12/06 05:30:06;;;;;;;;;;;;;;;-146.64;100.00;40013.22;5041648;28;19922;-76
2021/12/06 05:32:34;;;;;;;;;;;;;;;-146.64;100.00;40045.97;5056553;28;19924;-76
2021/12/06 05:35:06;;;;;;;;;;;;;;;-146.64;100.00;40009.13;5067004;28;19912;-76
2021/12/06 05:37:35;;;;;;;;;;;;;;;-146.64;100.00;40027.56;5064313;28;19919;-76
2021/12/06 05:40:01;;;;;;;;;;;;;;;-146.64;100.00;40007.09;5061904;28;20383;-77
2021/12/06 05:42:26;;;;;;;;;;;;;;;-146.64;100.00;40031.66;5061800;28;19928;-77
2021/12/06 05:44:52;;;;;;;;;;;;;;;-146.64;100.00;40037.78;5073438;28;19963;-76
2021/12/06 05:47:17;;;;;;;;;;;;;;;-146.64;100.00;40017.31;5053203;28;19916;-76
2021/12/06 05:49:42;;;;;;;;;;;;;;;-146.64;100.00;40029.59;5060092;28;19913;-77
2021/12/06 05:52:08;;;;;;;;;;;;;;;-146.64;100.00;39996.84;5060899;28;19912;-76
2021/12/06 05:54:33;;;;;;;;;;;;;;;-146.64;100.00;40000.94;5088487;28;19914;-76
2021/12/06 05:56:59;;;;;;;;;;;;;;;-146.64;100.00;40003.00;5075645;28;20106;-76
2021/12/06 05:59:24;;;;;;;;;;;;;;;-146.64;100.00;40013.22;5065989;28;20040;-76
2021/12/06 06:01:52;;;;;;;;;;;;;;;-146.64;100.00;40009.13;5060999;28;19969;-76
2021/12/06 06:04:17;;;;;;;;;;;;;;;-146.64;100.00;39996.84;5061105;28;20367;-76
2021/12/06 06:06:43;;;;;;;;;;;;;;;-146.64;100.00;40000.94;5052267;28;19915;-76
2021/12/06 06:09:08;;;;;;;;;;;;;;;-146.64;100.00;39992.75;5076654;28;19990;-77
2021/12/06 06:11:36;;;;;;;;;;;;;;;-146.64;100.00;40005.03;5077831;28;19908;-76
2021/12/06 06:14:02;;;;;;;;;;;;;;;-146.64;100.00;40000.94;5076778;28;20339;-77
2021/12/06 06:16:32;;;;;;;;;;;;;;;-146.64;100.00;40054.16;5079604;28;20345;-77
2021/12/06 06:18:57;;;;;;;;;;;;;;;-146.64;100.00;40011.19;5082320;28;19922;-76
2021/12/06 06:21:22;;;;;;;;;;;;;;;-146.64;100.00;40009.13;5066851;28;20349;-77
2021/12/06 06:23:47;;;;;;;;;;;;;;;-146.64;100.00;40029.59;5074820;28;19924;-75
2021/12/06 06:26:13;;;;;;;;;;;;;;;-146.64;100.00;40007.09;5071034;28;20003;-75
2021/12/06 06:28:38;;;;;;;;;;;;;;;-146.64;100.00;40035.75;5066012;28;20340;-76
2021/12/06 06:31:03;;;;;;;;;;;;;;;-146.64;100.00;39996.84;5062157;28;19917;-76
2021/12/06 06:33:29;;;;;;;;;;;;;;;-146.64;100.00;39984.56;5060275;28;19912;-76
2021/12/06 06:35:54;;;;;;;;;;;;;;;-146.64;100.00;40021.41;5069941;28;19912;-76
2021/12/06 06:38:20;;;;;;;;;;;;;;;-146.64;100.00;40029.59;5054871;28;19926;-75
2021/12/06 06:40:45;;;;;;;;;;;;;;;-146.64;100.00;40070.53;5064281;28;19916;-76
2021/12/06 06:43:10;;;;;;;;;;;;;;;-146.64;100.00;40033.69;5072555;28;19962;-76
2021/12/06 06:45:36;;;;;;;;;;;;;;;-146.64;100.00;40060.31;5068787;28;19916;-76
2021/12/06 06:48:01;;;;;;;;;;;;;;;-146.64;100.00;40045.97;5091477;28;19908;-76
2021/12/06 06:50:26;;;;;;;;;;;;;;;-146.64;100.00;40033.69;5059824;28;19963;-76
2021/12/06 06:52:52;;;;;;;;;;;;;;;-146.64;100.00;40015.28;5080509;28;19912;-76
2021/12/06 06:55:17;;;;;;;;;;;;;;;-146.64;100.00;40007.09;5068097;28;19916;-75
2021/12/06 06:57:43;;;;;;;;;;;;;;;-146.64;100.00;40035.75;5059077;28;19952;-76
2021/12/06 07:00:12;;;;;;;;;;;;;;;-146.64;100.00;40000.94;5057012;28;20356;-76
2021/12/06 07:02:37;;;;;;;;;;;;;;;-146.64;100.00;40045.97;5065629;28;20419;-76
2021/12/06 07:05:03;;;;;;;;;;;;;;;-146.64;100.00;40021.41;5068434;28;19916;-76
2021/12/06 07:07:28;;;;;;;;;;;;;;;-146.64;100.00;39988.66;5080381;28;19914;-76
2021/12/06 07:09:54;;;;;;;;;;;;;;;-146.64;100.00;40013.22;5070261;28;19937;-76
2021/12/06 07:12:19;;;;;;;;;;;;;;;-146.64;100.00;40009.13;5080616;28;19919;-77
2021/12/06 07:14:45;;;;;;;;;;;;;;;-146.64;100.00;39996.84;5078479;28;19942;-76
2021/12/06 07:17:10;;;;;;;;;;;;;;;-146.64;100.00;40025.50;5083532;28;19992;-78
2021/12/06 07:19:36;;;;;;;;;;;;;;;-146.64;100.00;40011.19;5076745;28;19912;-76
2021/12/06 07:22:01;;;;;;;;;;;;;;;-146.64;100.00;40025.50;5073997;28;19916;-76
2021/12/06 07:24:26;;;;;;;;;;;;;;;-146.64;100.00;40033.69;5066629;28;19969;-77
2021/12/06 07:26:52;;;;;;;;;;;;;;;-146.64;100.00;40025.50;5045047;28;20300;-77
2021/12/06 07:29:17;;;;;;;;;;;;;;;-146.64;100.00;40029.59;5071534;28;19916;-76
2021/12/06 07:31:43;;;;;;;;;;;;;;;-146.64;100.00;40025.50;5062207;28;19920;-78
2021/12/06 07:34:08;;;;;;;;;;;;;;;-146.64;100.00;40007.09;5074422;28;19951;-77
2021/12/06 07:36:33;;;;;;;;;;;;;;;-146.64;100.00;40029.59;5051891;28;19961;-77
2021/12/06 07:38:58;;;;;;;;;;;;;;;-146.64;100.00;40023.47;5068735;28;19912;-76
2021/12/06 07:41:26;;;;;;;;;;;;;;;-146.64;100.00;40009.13;5063407;28;20434;-76
2021/12/06 07:43:51;;;;;;;;;;;;;;;-146.64;100.00;40011.19;5053252;28;20014;-77
2021/12/06 07:46:17;;;;;;;;;;;;;;;-146.64;100.00;40017.31;5062300;28;20348;-77
2021/12/06 07:48:42;;;;;;;;;;;;;;;-146.64;100.00;40025.50;5070398;28;20336;-77
2021/12/06 07:51:08;;;;;;;;;;;;;;;-146.64;100.00;40058.25;5069880;28;19959;-77
2021/12/06 07:53:33;;;;;;;;;;;;;;;-146.64;100.00;39992.75;5059420;28;20411;-77
2021/12/06 07:55:59;;;;;;;;;;;;;;;-146.64;100.00;40009.13;5077174;28;19966;-76
2021/12/06 07:58:24;;;;;;;;;;;;;;;-146.64;100.00;40011.19;5062778;28;19913;-77
2021/12/06 08:00:49;;;;;;;;;;;;;;;-146.64;100.00;39996.84;5074325;28;19917;-76
2021/12/06 08:03:15;;;;;;;;;;;;;;;-146.64;100.00;39994.81;5069256;28;20292;-79
2021/12/06 08:05:41;;;;;;;;;;;;;;;-146.64;100.00;39980.47;5073379;28;19920;-77
2021/12/06 08:08:13;;;;;;;;;;;;;;;-146.64;100.00;39957.97;5056598;28;20002;-77
2021/12/06 08:10:40;;;;;;;;;;;;;;;-146.64;100.00;39964.09;5062004;28;19919;-76
2021/12/06 08:13:05;;;;;;;;;;;;;;;-146.64;100.00;39925.22;5053377;28;19919;-76
2021/12/06 08:15:31;;;;;;;;;;;;;;;-146.64;100.00;39914.97;5066894;28;19912;-76
2021/12/06 08:17:56;;;;;;;;;;;;;;;-146.64;100.00;39894.50;5055008;28;19917;-76
2021/12/06 08:20:21;;;;;;;;;;;;;;;-146.64;100.00;39929.31;5070425;28;20043;-76
2021/12/06 08:22:47;;;;;;;;;;;;;;;-146.64;100.00;39939.53;5063620;28;19973;-76
2021/12/06 08:25:12;;;;;;;;;;;;;;;-146.64;100.00;39925.22;5076862;28;19951;-76
2021/12/06 08:27:37;;;;;;;;;;;;;;;-146.64;100.00;39914.97;5078768;28;20271;-76
2021/12/06 08:30:03;;;;;;;;;;;;;;;-146.64;100.00;39931.34;5049770;28;19919;-77
2021/12/06 08:32:29;;;;;;;;;;;;;;;-146.64;100.00;39931.34;5068000;28;19920;-76
2021/12/06 08:34:54;;;;;;;;;;;;;;;-146.64;100.00;39890.41;5048902;28;19936;-76
2021/12/06 08:37:19;;;;;;;;;;;;;;;-146.64;100.00;39914.97;5056714;28;19999;-76
2021/12/06 08:39:44;;;;;;;;;;;;;;;-146.64;100.00;39919.06;5050076;28;19923;-77
2021/12/06 08:42:10;;;;;;;;;;;;;;;-146.64;100.00;39902.69;5062720;28;19917;-76
2021/12/06 08:44:35;;;;;;;;;;;;;;;-146.64;100.00;39923.16;5071318;28;20007;-76
2021/12/06 08:47:02;;;;;;;;;;;;;;;-146.64;100.00;39910.88;5057119;28;19912;-76
2021/12/06 08:49:27;;;;;;;;;;;;;;;-146.64;100.00;39872.00;5065592;28;20429;-77
2021/12/06 08:51:55;;;;;;;;;;;;;;;-146.64;100.00;39902.69;5068049;28;20003;-76
2021/12/06 08:54:22;;;;;;;;;;;;;;;-146.64;100.00;39898.59;5047709;28;20354;-77
2021/12/06 08:56:48;;;;;;;;;;;;;;;-146.64;100.00;39906.78;5071364;28;20002;-76
2021/12/06 08:59:13;;;;;;;;;;;;;;;-146.64;100.00;39914.97;5066177;28;20003;-78
2021/12/06 09:01:39;;;;;;;;;;;;;;;-146.64;100.00;39890.41;5043567;28;19924;-76
2021/12/06 09:04:08;;;;;;;;;;;;;;;-146.64;100.00;39904.75;5067919;28;19912;-76
2021/12/06 09:06:34;;;;;;;;;;;;;;;-146.64;100.00;39861.75;5056517;28;19966;-76
2021/12/06 09:09:00;;;;;;;;;;;;;;;-146.64;100.00;39847.44;5058498;28;20322;-76
2021/12/06 09:11:25;;;;;;;;;;;;;;;-146.64;100.00;39872.00;5049110;28;19912;-76
2021/12/06 09:13:50;;;;;;;;;;;;;;;-146.64;100.00;39849.47;5068640;28;19916;-76
2021/12/06 09:16:16;;;;;;;;;;;;;;;-146.64;100.00;39837.19;5070485;28;20296;-76
2021/12/06 09:18:42;;;;;;;;;;;;;;;-146.64;100.00;39816.72;5048213;28;19916;-76
2021/12/06 09:21:09;;;;;;;;;;;;;;;-146.64;100.00;39845.38;5063724;28;19962;-76
2021/12/06 09:23:34;;;;;;;;;;;;;;;-146.64;100.00;39829.00;5049420;28;19920;-76
2021/12/06 09:26:00;;;;;;;;;;;;;;;-146.64;100.00;39816.72;5070161;28;19923;-76
2021/12/06 09:28:25;;;;;;;;;;;;;;;-146.64;100.00;39747.13;5061437;28;19954;-77
2021/12/06 09:30:50;;;;;;;;;;;;;;;-146.64;100.00;39771.69;5063252;28;20010;-76
2021/12/06 09:33:16;;;;;;;;;;;;;;;-146.64;100.00;39763.50;5061208;28;19956;-76
2021/12/06 09:35:43;;;;;;;;;;;;;;;-146.64;100.00;39792.16;5068765;28;19919;-76
2021/12/06 09:38:09;;;;;;;;;;;;;;;-146.64;100.00;39734.84;5056312;28;19916;-77
2021/12/06 09:40:36;;;;;;;;;;;;;;;-146.64;100.00;39720.53;5059392;28;20478;-77
2021/12/06 09:43:01;;;;;;;;;;;;;;;-146.64;100.00;39734.84;5049201;28;19996;-76
2021/12/06 09:45:28;;;;;;;;;;;;;;;-146.64;100.00;39732.81;5050182;28;20003;-77
2021/12/06 09:47:54;;;;;;;;;;;;;;;-146.64;100.00;39765.56;5074016;28;19912;-76
2021/12/06 09:50:21;;;;;;;;;;;;;;;-146.64;100.00;39726.66;5046339;28;20291;-76
2021/12/06 09:52:47;;;;;;;;;;;;;;;-146.64;100.00;39706.19;5083034;28;19965;-76
2021/12/06 09:55:12;;;;;;;;;;;;;;;-146.64;100.00;39718.47;5051882;28;19920;-76
2021/12/06 09:57:37;;;;;;;;;;;;;;;-146.64;100.00;39702.09;5061708;28;20008;-76
2021/12/06 10:00:04;;;;;;;;;;;;;;;-146.64;100.00;39655.03;5063276;28;19912;-76
2021/12/06 10:02:29;;;;;;;;;;;;;;;-146.64;100.00;39661.16;5059581;28;20283;-76
2021/12/06 10:04:55;;;;;;;;;;;;;;;-146.64;100.00;39689.81;5064907;28;19916;-76
2021/12/06 10:07:22;;;;;;;;;;;;;;;-146.64;100.00;39712.34;5054420;28;19919;-76
2021/12/06 10:09:49;;;;;;;;;;;;;;;-146.64;100.00;39693.91;5060835;28;20371;-76
2021/12/06 10:12:16;;;;;;;;;;;;;;;-146.64;100.00;39693.91;5071829;28;19912;-76
2021/12/06 10:14:42;;;;;;;;;;;;;;;-146.64;100.00;39669.34;5045770;28;19912;-76
2021/12/06 10:17:07;;;;;;;;;;;;;;;-146.64;100.00;39722.56;5057324;28;19924;-76
2021/12/06 10:19:33;;;;;;;;;;;;;;;-146.64;100.00;39706.19;5040853;28;19909;-77
2021/12/06 10:21:58;;;;;;;;;;;;;;;-146.64;100.00;39695.97;5056190;28;19912;-76
2021/12/06 10:24:25;;;;;;;;;;;;;;;-146.64;100.00;39706.19;5068103;28;19916;-76
2021/12/06 10:26:52;;;;;;;;;;;;;;;-146.64;100.00;39669.34;5051197;28;19923;-76
2021/12/06 10:29:20;;;;;;;;;;;;;;;-146.64;100.00;39646.84;5052270;28;19917;-76
2021/12/06 10:31:45;;;;;;;;;;;;;;;-146.64;100.00;39669.34;5069859;28;20408;-76
2021/12/06 10:34:18;;;;;;;;;;;;;;;-146.64;100.00;39657.06;5046554;28;19920;-76
2021/12/06 10:36:44;;;;;;;;;;;;;;;-146.64;100.00;39650.94;5092406;28;19912;-76
2021/12/06 10:39:09;;;;;;;;;;;;;;;-146.64;100.00;39648.88;5089499;28;19957;-77
2021/12/06 10:41:35;;;;;;;;;;;;;;;-146.64;100.00;39663.22;5053001;28;20007;-76
2021/12/06 10:44:04;;;;;;;;;;;;;;;-146.64;100.00;39687.78;5069373;28;20304;-76
2021/12/06 10:46:29;;;;;;;;;;;;;;;-146.64;100.00;39689.81;5048145;28;19999;-76
2021/12/06 10:51:01;;;;;;;106.53;40.47;;;;;;;-146.64;100.00;39663.22;5074554;27;1246683;-76
2021/12/06 10:53:40;;;;;;;107.05;42.15;;;;;;;-146.64;100.00;39689.81;5101515;28;20075;-75
2021/12/06 10:56:16;;;;;;;107.80;40.45;;;;;;;-146.64;100.00;39681.63;5064639;28;20055;-75
2021/12/06 10:58:42;;;;;;;107.60;38.33;;;;;;;-146.64;100.00;39667.31;5079301;28;20015;-75
2021/12/06 11:01:13;;;;;;;100.70;39.58;;;;;;;-146.64;100.00;39657.06;5077244;28;20055;-76
2021/12/06 11:03:41;;;;;;;101.10;37.90;;;;;;;-146.64;100.00;39632.50;5058338;28;20021;-76
2021/12/06 11:06:10;;;;;;;101.63;38.60;;;;;;;-146.64;100.00;39673.44;5083547;28;20031;-76
2021/12/06 11:08:37;;;;;;;102.53;38.05;;;;;;;-146.64;100.00;39652.97;5061421;28;20056;-76
2021/12/06 11:11:09;;;;;;;89.15;35.70;;;;;;;-146.64;100.00;39669.34;5079881;28;20020;-76
2021/12/06 11:13:41;;;;;;;91.07;35.17;;;;;;;-146.64;100.00;39659.13;5062781;28;20094;-76
2021/12/06 11:16:08;;;;;;;77.15;32.17;;;;;;;-146.64;100.00;39673.44;5083346;28;20363;-76
2021/12/06 11:18:44;;;;;;;71.85;29.10;;;;;;;-146.64;100.00;39650.94;5082089;28;20500;-77
2021/12/06 11:21:14;;;;;;;63.05;27.15;;;;;;;-146.64;100.00;39652.97;5060223;28;20024;-77
2021/12/06 11:24:01;;;;;;;68.30;29.40;;;;;;;-146.64;100.00;39673.44;5076900;28;20032;-77
2021/12/06 11:26:29;;;;;;;67.15;27.70;;;;;;;-146.64;100.00;39620.22;5077850;28;20032;-76
2021/12/06 11:28:54;;;;;;;68.40;29.52;;;;;;;-146.64;100.00;39652.97;5075979;28;20032;-76
2021/12/06 11:31:20;;;;;;;62.75;27.63;;;;;;;-146.64;100.00;39624.31;5072600;28;20342;-77
2021/12/06 11:33:58;;;;;;;59.67;26.85;;;;;;;-146.64;100.00;39624.31;5069914;28;20103;-78
2021/12/06 11:36:24;;;;;;;59.85;26.02;;;;;;;-146.64;100.00;39626.38;5083320;28;20408;-76
2021/12/06 11:38:51;;;;;;;55.63;26.08;;;;;;;-146.64;100.00;39605.91;5069481;28;20028;-77
2021/12/06 11:41:17;;;;;;;55.55;28.27;;;;;;;-146.64;100.00;39591.56;5079891;28;20035;-76
2021/12/06 11:43:42;;;;;;;57.20;26.05;;;;;;;-146.64;100.00;39577.25;5077629;28;20037;-75
2021/12/06 11:46:08;;;;;;;54.00;25.55;;;;;;;-146.64;100.00;39599.75;5059925;28;20025;-76
2021/12/06 11:48:37;;;;;;;54.33;27.17;;;;;;;-146.64;100.00;39610.00;5057944;28;20535;-76
2021/12/06 11:51:15;;;;;;;62.88;26.77;;;;;;;-146.64;100.00;39579.28;5078703;28;20052;-76
2021/12/06 11:53:44;;;;;;;56.72;26.25;;;;;;;-146.64;100.00;39567.00;5072595;28;20024;-75
2021/12/06 11:56:22;;;;;;;51.42;24.48;;;;;;;-146.64;100.00;39591.56;5082570;28;20028;-74
2021/12/06 11:58:54;;;;;;;44.10;23.45;;;;;;;-146.64;100.00;39593.63;5075545;28;20119;-75
2021/12/06 12:01:27;;;;;;;47.72;21.85;;;;;;;-146.64;100.00;39610.00;5057413;28;20032;-75
2021/12/06 12:04:03;;;;;;;45.42;22.10;;;;;;;-146.64;100.00;39546.53;5053639;28;20104;-75
2021/12/06 12:06:30;;;;;;;47.23;22.20;;;;;;;-146.64;100.00;39587.47;5065932;28;20028;-76
2021/12/06 12:09:11;;;;;;;51.35;23.83;;;;;;;-146.64;100.00;39616.13;5044125;28;20029;-75
2021/12/06 12:11:57;;;;;;;41.17;20.77;;;;;;;-146.64;100.00;39620.22;5059224;28;20033;-76
2021/12/06 12:14:35;;;;;;;38.65;20.58;;;;;;;-146.64;100.00;39583.38;5069268;28;20024;-75
2021/12/06 12:17:02;;;;;;;43.88;22.00;;;;;;;-146.64;100.00;39636.59;5063458;28;20074;-76
2021/12/06 12:19:28;;;;;;;38.92;20.42;;;;;;;-146.64;100.00;39587.47;5039108;28;20029;-76
2021/12/06 12:21:54;;;;;;;42.47;20.97;;;;;;;-146.64;100.00;39612.03;5058483;28;20121;-75